Storm Wave — CZ9636 — position and weather

sailwx.info

Track history (hours):
 
Tides and Currents Weather Stations Pressure Air Temp Water Temp Dewpoint Dewpoint Depression Visibility Wind Speed Wind Dir Waves Ship Positions

Storm Wave

Last reported at 2018-Jun-25 05:30 UTC. Time now 2018-Jun-25 05:52 UTC.
Position N 49°17' W 122°58'.

Length 19 m; draft 4.3 m.

Type: Tug. MMSI: 316001222.

Date/timePositionNaut miles runAvg speedWind from/ knotsBaromVisibWave heightAir tempDewpointWater temp
2018-Jun-25 05:30N 49°17' W 122°58'73839.9
2018-Jun-25 05:30N 49°12' W 123°06'715.0
2018-Jun-25 05:00N 49°17' W 122°58'71581.1
2018-Jun-25 05:00N 49°12' W 123°06'815.7
2018-Jun-25 04:30N 49°18' W 122°58'8584.8
2018-Jun-25 04:29N 49°12' W 123°06'1121.9
2018-Jun-25 04:00N 49°18' W 122°53'1186.4
2018-Jun-25 03:53N 49°12' W 123°06'1026.1
2018-Jun-25 03:30N 49°18' W 122°54'101977.9
2018-Jun-25 03:30N 49°12' W 123°06'0 0.0
2018-Jun-25 03:00N 49°12' W 123°06'7517.2
2018-Jun-25 03:00N 49°17' W 122°58'715.4
2018-Jun-25 02:30N 49°12' W 123°06'7896.0
2018-Jun-25 02:30N 49°17' W 122°58'715.0
2018-Jun-25 02:00N 49°12' W 123°06'71120.0
2018-Jun-25 02:00N 49°17' W 122°58'715.3
2018-Jun-25 01:30N 49°12' W 123°06'726879.5
2018-Jun-25 01:30N 49°17' W 122°58'0 0.8
2018-Jun-25 01:00N 49°17' W 122°58'0 0.6
2018-Jun-25 00:30N 49°18' W 122°58'841.9
2018-Jun-25 00:19N 49°12' W 123°06'723.3
2018-Jun-25 00:00N 49°17' W 122°58'7122.7
2018-Jun-24 23:56N 49°12' W 123°06'717.2
2018-Jun-24 23:30N 49°17' W 122°58'71414.7
2018-Jun-24 23:30N 49°12' W 123°06'0 0.0
2018-Jun-24 23:00N 49°12' W 123°06'7640.0
2018-Jun-24 23:00N 49°17' W 122°58'0 0.0
2018-Jun-24 22:30N 49°17' W 122°58'0 0.0
2018-Jun-24 22:00N 49°17' W 122°58'0 0.0
2018-Jun-24 21:30N 49°17' W 122°58'0 0.0
2018-Jun-24 21:00N 49°17' W 122°58'719.1
2018-Jun-24 20:37N 49°12' W 123°06'873.1
2018-Jun-24 20:30N 49°18' W 122°58'8421.2
2018-Jun-24 20:29N 49°12' W 123°06'918.6
2018-Jun-24 20:00N 49°18' W 122°56'9111.2
2018-Jun-24 19:55N 49°12' W 123°06'921.8
2018-Jun-24 19:30N 49°17' W 122°55'968.4
2018-Jun-24 19:22N 49°12' W 123°06'820.9
2018-Jun-24 19:00N 49°17' W 122°58'8143.7
2018-Jun-24 18:57N 49°12' W 123°06'716.4
2018-Jun-24 18:30N 49°17' W 122°58'786.5
2018-Jun-24 18:25N 49°12' W 123°06'717.9
2018-Jun-24 18:00N 49°17' W 122°58'750.6
2018-Jun-24 17:51N 49°12' W 123°06'0 0.0
2018-Jun-24 17:30N 49°12' W 123°06'72431.9
2018-Jun-24 17:30N 49°17' W 122°58'715.2
2018-Jun-24 17:00N 49°12' W 123°06'7431.2
2018-Jun-24 16:59N 49°17' W 122°58'0 0.1
2018-Jun-24 16:30N 49°17' W 122°58'7956.6
2018-Jun-24 16:30N 49°12' W 123°06'0 0.0
2018-Jun-24 16:00N 49°12' W 123°06'91537.5
2018-Jun-24 16:00N 49°17' W 122°54'0 0.2
2018-Jun-24 15:30N 49°17' W 122°54'91787.6
2018-Jun-24 15:30N 49°12' W 123°06'918.4
2018-Jun-24 15:00N 49°18' W 122°55'94049.1
2018-Jun-24 15:00N 49°12' W 123°06'918.0
2018-Jun-24 14:30N 49°18' W 122°56'91905.1
2018-Jun-24 14:30N 49°12' W 123°06'816.6
2018-Jun-24 14:00N 49°18' W 122°57'8815.2
2018-Jun-24 14:00N 49°12' W 123°06'715.0
2018-Jun-24 13:30N 49°17' W 122°58'73353.9
2018-Jun-24 13:30N 49°12' W 123°06'715.2
2018-Jun-24 13:00N 49°17' W 122°58'7343.4
2018-Jun-24 12:59N 49°12' W 123°06'0 0.0
2018-Jun-24 12:30N 49°12' W 123°06'72060.2
2018-Jun-24 12:30N 49°17' W 122°58'0 0.0
2018-Jun-24 12:00N 49°17' W 122°58'7956.5
2018-Jun-24 11:59N 49°12' W 123°06'715.3
2018-Jun-24 11:30N 49°17' W 122°58'7558.3
2018-Jun-24 11:29N 49°12' W 123°06'715.3
2018-Jun-24 11:00N 49°17' W 122°58'0 0.0
2018-Jun-24 10:29N 49°17' W 122°58'0 0.0
2018-Jun-24 09:59N 49°17' W 122°58'0 0.0
2018-Jun-24 09:30N 49°17' W 122°58'0 0.0
2018-Jun-24 09:00N 49°17' W 122°58'0 0.0
2018-Jun-24 08:30N 49°17' W 122°58'0 0.0
2018-Jun-24 08:00N 49°17' W 122°58'737.7
2018-Jun-24 07:48N 49°12' W 123°06'724.8
2018-Jun-24 07:30N 49°17' W 122°58'761.0
2018-Jun-24 07:23N 49°12' W 123°06'719.5
2018-Jun-24 07:00N 49°17' W 122°58'73345.9
2018-Jun-24 07:00N 49°12' W 123°06'714.8
2018-Jun-24 06:30N 49°17' W 122°58'0 0.0
2018-Jun-24 06:00N 49°17' W 122°58'713.6
2018-Jun-24 05:27N 49°12' W 123°06'72678.3
2018-Jun-24 05:27N 49°17' W 122°58'0 0.0
2018-Jun-24 05:00N 49°17' W 122°58'71487.1
2018-Jun-24 05:00N 49°12' W 123°06'0 0.0
2018-Jun-24 04:30N 49°12' W 123°06'72679.9
2018-Jun-24 04:30N 49°17' W 122°58'715.1
2018-Jun-24 04:00N 49°12' W 123°06'7836.5
2018-Jun-24 04:00N 49°17' W 122°58'0 0.0
2018-Jun-24 03:30N 49°17' W 122°58'7453.9
2018-Jun-24 03:29N 49°12' W 123°06'0 0.0
2018-Jun-24 03:00N 49°12' W 123°06'7290.9
2018-Jun-24 02:59N 49°17' W 122°58'0 0.0
2018-Jun-24 02:30N 49°17' W 122°58'73826.1
2018-Jun-24 02:30N 49°12' W 123°06'0 0.0
2018-Jun-24 02:00N 49°12' W 123°06'71338.3
2018-Jun-24 02:00N 49°17' W 122°58'715.0
2018-Jun-24 01:30N 49°12' W 123°06'78927.7
2018-Jun-24 01:30N 49°17' W 122°58'0 0.0
2018-Jun-24 00:59N 49°17' W 122°58'7300.9
2018-Jun-24 00:58N 49°12' W 123°06'716.0
2018-Jun-24 00:30N 49°17' W 122°58'7300.9
2018-Jun-24 00:28N 49°12' W 123°06'715.8
2018-Jun-24 00:00N 49°17' W 122°58'72678.3
2018-Jun-24 00:00N 49°12' W 123°06'715.0
2018-Jun-23 23:30N 49°17' W 122°58'7704.8
2018-Jun-23 23:30N 49°12' W 123°06'0 0.0
2018-Jun-23 23:00N 49°12' W 123°06'7201.4
2018-Jun-23 22:58N 49°17' W 122°58'716.3
2018-Jun-23 22:30N 49°12' W 123°06'799.3
2018-Jun-23 22:26N 49°17' W 122°58'0 0.0
2018-Jun-23 22:00N 49°17' W 122°58'71409.6
2018-Jun-23 22:00N 49°12' W 123°06'0 0.0
2018-Jun-23 21:30N 49°12' W 123°06'71273.9
2018-Jun-23 21:30N 49°17' W 122°58'0 0.0
2018-Jun-23 21:00N 49°17' W 122°58'73823.9
2018-Jun-23 21:00N 49°12' W 123°06'715.0
2018-Jun-23 20:30N 49°17' W 122°58'71487.1
2018-Jun-23 20:30N 49°12' W 123°06'0 0.0
2018-Jun-23 19:58N 49°12' W 123°06'72060.2
2018-Jun-23 19:58N 49°17' W 122°58'0 0.0
2018-Jun-23 19:30N 49°17' W 122°58'772.6
2018-Jun-23 19:24N 49°12' W 123°06'719.0
2018-Jun-23 19:00N 49°17' W 122°58'737.8
2018-Jun-23 18:48N 49°12' W 123°06'724.3
2018-Jun-23 18:30N 49°17' W 122°58'7194.0
2018-Jun-23 18:28N 49°12' W 123°06'716.2
2018-Jun-23 18:00N 49°17' W 122°58'7159.4
2018-Jun-23 17:57N 49°12' W 123°06'716.0
2018-Jun-23 17:30N 49°17' W 122°58'732.4
2018-Jun-23 17:16N 49°12' W 123°06'728.7
2018-Jun-23 17:00N 49°17' W 122°58'7182.2
2018-Jun-23 16:58N 49°12' W 123°06'716.2
2018-Jun-23 16:30N 49°17' W 122°58'787.2
2018-Jun-23 16:25N 49°12' W 123°06'717.7
2018-Jun-23 16:00N 49°17' W 122°58'7209.2
2018-Jun-23 15:58N 49°12' W 123°06'0 0.0
2018-Jun-23 15:30N 49°12' W 123°06'7425.1
2018-Jun-23 15:29N 49°17' W 122°58'0 0.0
2018-Jun-23 15:00N 49°17' W 122°58'7925.8
2018-Jun-23 14:59N 49°12' W 123°06'0 0.0
2018-Jun-23 14:30N 49°12' W 123°06'71820.9
2018-Jun-23 14:30N 49°18' W 123°01'3 5.3
2018-Jun-23 14:00N 49°18' W 123°05'6779.9
2018-Jun-23 14:00N 49°12' W 123°06'715.0
2018-Jun-23 13:30N 49°19' W 123°09'7301.3
2018-Jun-23 13:29N 49°12' W 123°06'0 0.0
2018-Jun-23 13:00N 49°12' W 123°06'8460.3
2018-Jun-23 12:59N 49°19' W 123°13'1 2.4
2018-Jun-23 12:30N 49°18' W 123°14'8442.3
2018-Jun-23 12:28N 49°12' W 123°06'0 0.0
2018-Jun-23 12:00N 49°12' W 123°06'10292.4
2018-Jun-23 11:58N 49°18' W 123°18'1 3.2
2018-Jun-23 11:30N 49°18' W 123°20'111047.0
2018-Jun-23 11:30N 49°12' W 123°06'0 0.0
2018-Jun-23 10:58N 49°12' W 123°06'0 0.0
2018-Jun-23 10:30N 49°12' W 123°06'0 0.0
2018-Jun-23 07:22N 49°12' W 123°06'0 0.0
2018-Jun-23 05:36N 49°12' W 123°06'0 0.0
2018-Jun-23 05:30N 49°12' W 123°06'0 0.0
2018-Jun-23 04:58N 49°12' W 123°06'0 0.0
2018-Jun-23 04:30N 49°12' W 123°06'0 0.0
2018-Jun-23 04:00N 49°12' W 123°06'0 0.0
2018-Jun-23 03:29N 49°12' W 123°06'0 0.0
2018-Jun-23 03:00N 49°12' W 123°06'0 0.0
2018-Jun-23 02:30N 49°12' W 123°06'0 0.0
2018-Jun-23 02:00N 49°12' W 123°06'0 0.0
2018-Jun-23 01:30N 49°12' W 123°06'0 0.0
2018-Jun-23 00:58N 49°12' W 123°06'0 0.0
2018-Jun-23 00:30N 49°12' W 123°06'0 0.0
2018-Jun-23 00:00N 49°12' W 123°06'0 0.0
2018-Jun-22 23:29N 49°12' W 123°06'0 0.0
2018-Jun-22 22:59N 49°12' W 123°06'0 0.0
2018-Jun-22 22:28N 49°12' W 123°06'0 0.0
2018-Jun-22 21:58N 49°12' W 123°06'0 0.0
2018-Jun-22 21:30N 49°12' W 123°06'0 0.0
2018-Jun-22 21:00N 49°12' W 123°06'0 0.0
2018-Jun-22 20:28N 49°12' W 123°06'11 1.1
2018-Jun-22 10:21N 49°19' W 123°18'2 3.8
2018-Jun-22 09:56N 49°19' W 123°16'2 3.5
2018-Jun-22 09:30N 49°19' W 123°14'2 3.7
2018-Jun-22 09:00N 49°19' W 123°11'3 6.0
2018-Jun-22 08:30N 49°18' W 123°07'3 5.8
2018-Jun-22 08:00N 49°18' W 123°02'2 4.5
2018-Jun-22 07:30N 49°18' W 122°59'1 1.3
2018-Jun-22 07:00N 49°18' W 122°58'0 0.9
2018-Jun-22 06:30N 49°17' W 122°58'0 0.0
2018-Jun-22 06:00N 49°17' W 122°58'0 0.0
2018-Jun-22 05:28N 49°17' W 122°58'0 0.0
2018-Jun-22 05:00N 49°17' W 122°58'0 0.0
2018-Jun-22 04:30N 49°17' W 122°58'0 0.0
2018-Jun-22 04:00N 49°17' W 122°58'0 0.0
2018-Jun-22 03:30N 49°17' W 122°58'0 0.0
2018-Jun-22 03:00N 49°17' W 122°58'0 0.0
2018-Jun-22 02:30N 49°17' W 122°58'0 0.0
2018-Jun-22 02:00N 49°17' W 122°58'0 0.0
2018-Jun-22 01:30N 49°17' W 122°58'0 0.0
2018-Jun-22 01:00N 49°17' W 122°58'0 0.0
2018-Jun-22 00:30N 49°17' W 122°58'0 0.0
2018-Jun-22 00:00N 49°17' W 122°58'730.9
2018-Jun-21 23:45N 49°12' W 123°06'0 0.0
2018-Jun-21 23:30N 49°12' W 123°06'7896.5
2018-Jun-21 23:30N 49°17' W 122°58'2 3.1
2018-Jun-21 23:00N 49°18' W 122°56'2 3.1
2018-Jun-21 22:30N 49°17' W 122°54'103880.1
2018-Jun-21 22:30N 49°12' W 123°06'917.3
2018-Jun-21 22:00N 49°18' W 122°56'91483.1
2018-Jun-21 22:00N 49°12' W 123°06'715.3
2018-Jun-21 21:30N 49°17' W 122°58'7227.8
2018-Jun-21 21:28N 49°12' W 123°06'715.9
2018-Jun-21 21:00N 49°17' W 122°58'7926.3
2018-Jun-21 21:00N 49°12' W 123°06'0 0.0
2018-Jun-21 20:30N 49°12' W 123°06'7863.5
2018-Jun-21 20:30N 49°17' W 122°58'0 0.1
2018-Jun-21 20:00N 49°17' W 122°58'7726.0
2018-Jun-21 20:00N 49°12' W 123°06'715.2
2018-Jun-21 19:30N 49°17' W 122°58'7559.7
2018-Jun-21 19:29N 49°12' W 123°06'0 0.0
2018-Jun-21 19:00N 49°12' W 123°06'71279.2
2018-Jun-21 19:00N 49°17' W 122°58'715.3
2018-Jun-21 18:30N 49°12' W 123°06'7671.6
2018-Jun-21 18:30N 49°17' W 122°58'0 0.0
2018-Jun-21 18:00N 49°17' W 122°58'0 0.2
2018-Jun-21 17:30N 49°18' W 122°59'1 1.0
2018-Jun-21 17:00N 49°17' W 122°58'0 0.9
2018-Jun-21 16:30N 49°18' W 122°58'0 0.2
2018-Jun-21 16:00N 49°18' W 122°58'1 2.9
2018-Jun-21 15:30N 49°18' W 123°00'1 2.6
2018-Jun-21 15:00N 49°17' W 122°58'3 5.9
2018-Jun-21 14:30N 49°17' W 122°54'2 3.4
2018-Jun-21 14:00N 49°18' W 122°56'1 2.6
2018-Jun-21 13:29N 49°17' W 122°58'0 0.0
2018-Jun-21 13:00N 49°17' W 122°58'0 0.0
2018-Jun-21 12:30N 49°17' W 122°58'0 0.0
2018-Jun-21 12:00N 49°17' W 122°58'0 0.0
2018-Jun-21 11:30N 49°17' W 122°58'0 0.0
2018-Jun-21 10:59N 49°17' W 122°58'0 0.0
2018-Jun-21 10:30N 49°17' W 122°58'718.8
2018-Jun-21 10:06N 49°12' W 123°06'776.1
2018-Jun-21 10:00N 49°17' W 122°58'73357.9
2018-Jun-21 10:00N 49°12' W 123°06'715.0
2018-Jun-21 09:30N 49°17' W 122°58'74477.2
2018-Jun-21 09:30N 49°12' W 123°06'715.0
2018-Jun-21 09:00N 49°17' W 122°58'74479.9
2018-Jun-21 09:00N 49°12' W 123°06'715.0
2018-Jun-21 08:30N 49°17' W 122°58'75369.5
2018-Jun-21 08:30N 49°12' W 123°06'0 0.0
2018-Jun-21 08:00N 49°12' W 123°06'76069.3
2018-Jun-21 08:00N 49°18' W 123°00'713.5
2018-Jun-21 07:30N 49°12' W 123°06'89019.3
2018-Jun-21 07:30N 49°18' W 122°59'713.7
2018-Jun-21 07:00N 49°12' W 123°05'7560.7
2018-Jun-21 07:00N 49°17' W 122°58'0 0.8
2018-Jun-21 06:30N 49°17' W 122°58'73349.7
2018-Jun-21 06:30N 49°11' W 122°59'713.2
2018-Jun-21 06:00N 49°17' W 122°58'6268.9
2018-Jun-21 05:59N 49°12' W 122°56'1 1.7
2018-Jun-21 05:30N 49°12' W 122°55'61674.3
2018-Jun-21 05:30N 49°17' W 122°58'713.4
2018-Jun-21 05:00N 49°13' W 122°51'7751.8
2018-Jun-21 05:00N 49°17' W 122°58'0 0.0
2018-Jun-21 04:30N 49°17' W 122°58'11173.1
2018-Jun-21 04:26N 49°13' W 122°43'1126.0
2018-Jun-21 04:00N 49°17' W 122°58'146968.3
2018-Jun-21 04:00N 49°12' W 122°40'1427.3
2018-Jun-21 03:30N 49°17' W 122°58'14855.6
2018-Jun-21 03:29N 49°12' W 122°40'0 0.0
2018-Jun-21 03:00N 49°12' W 122°40'143751.5
2018-Jun-21 03:00N 49°17' W 122°58'0 0.0
2018-Jun-21 02:30N 49°17' W 122°58'148128.2
2018-Jun-21 02:30N 49°12' W 122°40'0 0.0
2018-Jun-21 02:00N 49°12' W 122°40'13460.0
2018-Jun-21 01:59N 49°17' W 122°58'0 0.8
2018-Jun-21 01:30N 49°18' W 122°58'14224.0
2018-Jun-21 01:27N 49°12' W 122°40'0 0.0
2018-Jun-21 01:00N 49°12' W 122°40'1412196.9
2018-Jun-21 01:00N 49°17' W 122°58'0 0.0
2018-Jun-21 00:30N 49°17' W 122°58'14633.6
2018-Jun-21 00:28N 49°12' W 122°40'0 0.0
2018-Jun-21 00:00N 49°12' W 122°40'142121.2
2018-Jun-21 00:00N 49°17' W 122°58'1426.6
2018-Jun-20 23:29N 49°12' W 122°40'1412194.5
2018-Jun-20 23:29N 49°17' W 122°58'0 0.0
2018-Jun-20 23:00N 49°17' W 122°58'143048.6
2018-Jun-20 23:00N 49°12' W 122°40'1427.7
2018-Jun-20 22:30N 49°17' W 122°58'14633.5
2018-Jun-20 22:29N 49°12' W 122°40'0 0.0
2018-Jun-20 22:00N 49°12' W 122°40'141108.6
2018-Jun-20 21:59N 49°17' W 122°58'1427.7
2018-Jun-20 21:30N 49°12' W 122°40'141478.1
2018-Jun-20 21:29N 49°17' W 122°58'0 0.0
2018-Jun-20 21:00N 49°17' W 122°58'131026.5
2018-Jun-20 20:59N 49°12' W 122°40'1327.5
2018-Jun-20 20:30N 49°17' W 122°58'0 0.0
2018-Jun-20 20:00N 49°17' W 122°58'0 0.0
2018-Jun-20 19:30N 49°17' W 122°58'1344.2
2018-Jun-20 19:12N 49°12' W 122°40'1368.9
2018-Jun-20 19:00N 49°17' W 122°58'0 0.0
2018-Jun-20 18:30N 49°17' W 122°58'0 0.0
2018-Jun-20 18:00N 49°17' W 122°58'143048.6
2018-Jun-20 18:00N 49°12' W 122°40'0 0.0
2018-Jun-20 17:30N 49°12' W 122°40'144064.8
2018-Jun-20 17:30N 49°17' W 122°58'0 0.0
2018-Jun-20 17:00N 49°17' W 122°58'142869.3
2018-Jun-20 17:00N 49°12' W 122°40'1427.3
2018-Jun-20 16:30N 49°17' W 122°58'1490.8
2018-Jun-20 16:21N 49°12' W 122°40'1438.3
2018-Jun-20 16:00N 49°17' W 122°58'14559.3
2018-Jun-20 15:59N 49°12' W 122°40'1428.1
2018-Jun-20 15:30N 49°17' W 122°58'14728.0
2018-Jun-20 15:29N 49°12' W 122°40'0 0.0
2018-Jun-20 15:00N 49°12' W 122°40'143752.2
2018-Jun-20 15:00N 49°17' W 122°58'0 0.0
2018-Jun-20 14:30N 49°17' W 122°58'141742.1
2018-Jun-20 14:29N 49°12' W 122°40'1428.3
2018-Jun-20 14:00N 49°18' W 122°59'14519.3
2018-Jun-20 13:59N 49°12' W 122°40'0 0.0
2018-Jun-20 13:30N 49°12' W 122°40'161830.9
2018-Jun-20 13:30N 49°18' W 123°03'3 6.8
2018-Jun-20 13:00N 49°19' W 123°08'202072.3
2018-Jun-20 13:00N 49°12' W 122°40'0 0.0
2018-Jun-20 12:30N 49°12' W 122°40'222335.3
2018-Jun-20 12:30N 49°19' W 123°12'2244.4
2018-Jun-20 12:00N 49°12' W 122°40'232582.5
2018-Jun-20 12:00N 49°19' W 123°13'1 2.5
2018-Jun-20 11:30N 49°18' W 123°15'241292.0
2018-Jun-20 11:29N 49°12' W 122°40'2552.1
2018-Jun-20 11:00N 49°18' W 123°17'255344.5
2018-Jun-20 11:00N 49°12' W 122°40'0 0.0
2018-Jun-20 10:29N 49°12' W 122°40'27546.9
2018-Jun-20 10:26N 49°18' W 123°19'2756.8
2018-Jun-20 09:58N 49°12' W 122°40'0 0.0
2018-Jun-20 09:30N 49°12' W 122°40'0 0.0
2018-Jun-20 09:00N 49°12' W 122°40'0 0.0
2018-Jun-20 08:30N 49°12' W 122°40'0 0.0
2018-Jun-20 08:00N 49°12' W 122°40'1 1.3
2018-Jun-20 07:29N 49°12' W 122°41'2 3.1
2018-Jun-20 07:00N 49°13' W 122°43'2 3.6
2018-Jun-20 06:29N 49°13' W 122°46'2 4.0
2018-Jun-20 06:00N 49°13' W 122°48'2 4.5
2018-Jun-20 05:30N 49°13' W 122°52'2 3.7
2018-Jun-20 04:59N 49°12' W 122°54'2 5.0
2018-Jun-20 04:30N 49°10' W 122°56'3 5.1
2018-Jun-20 04:00N 49°09' W 122°60'3 5.3
2018-Jun-20 03:30N 49°08' W 123°03'2 4.2
2018-Jun-20 03:00N 49°07' W 123°06'2 4.1
2018-Jun-20 02:30N 49°07' W 123°09'2 3.9
2018-Jun-20 01:56N 49°08' W 123°12'13 0.8
2018-Jun-19 10:33N 49°18' W 123°23'1 9.0
2018-Jun-19 10:25N 49°18' W 123°21'215.0
2018-Jun-19 10:19N 49°19' W 123°19'1 4.0
2018-Jun-19 10:00N 49°19' W 123°17'3143.1
2018-Jun-19 09:59N 49°15' W 123°17'4 8.5
2018-Jun-19 09:29N 49°19' W 123°14'599.5
2018-Jun-19 09:26N 49°14' W 123°14'613.3
2018-Jun-19 09:00N 49°19' W 123°11'6318.1
2018-Jun-19 08:59N 49°14' W 123°14'713.5
2018-Jun-19 08:30N 49°18' W 123°06'6842.2
2018-Jun-19 08:30N 49°12' W 123°08'713.8
2018-Jun-19 08:00N 49°18' W 123°02'7324.3
2018-Jun-19 07:59N 49°12' W 123°08'817.0
2018-Jun-19 07:30N 49°17' W 122°58'9360.5
2018-Jun-19 07:28N 49°12' W 123°09'918.5
2018-Jun-19 07:00N 49°17' W 122°58'9345.7
2018-Jun-19 06:59N 49°13' W 123°11'2 4.4
2018-Jun-19 06:30N 49°14' W 123°13'119481.3
2018-Jun-19 06:30N 49°17' W 122°58'0 0.0
2018-Jun-19 06:00N 49°17' W 122°58'0 0.0
2018-Jun-19 05:30N 49°17' W 122°58'0 0.0
2018-Jun-19 04:59N 49°17' W 122°58'0 0.0
2018-Jun-19 04:30N 49°17' W 122°58'0 0.0
2018-Jun-19 04:00N 49°17' W 122°58'0 0.0
2018-Jun-19 03:29N 49°17' W 122°58'0 0.0
2018-Jun-19 03:00N 49°17' W 122°58'0 0.3
2018-Jun-19 02:30N 49°18' W 122°59'3 5.2
2018-Jun-19 01:58N 49°18' W 122°54'3 3.6
2018-Jun-19 01:15N 49°17' W 122°58'0 0.0
2018-Jun-19 00:11N 49°17' W 122°58'2 1.6
2018-Jun-18 23:13N 49°18' W 123°01'1 3.2
2018-Jun-18 22:57N 49°18' W 122°59'1 1.6
2018-Jun-18 22:29N 49°17' W 122°58'0 0.0
2018-Jun-18 21:49N 49°17' W 122°58'0 0.0
2018-Jun-18 21:29N 49°17' W 122°58'0 0.0
2018-Jun-18 20:49N 49°17' W 122°58'0 0.0
2018-Jun-18 20:28N 49°17' W 122°58'0 0.0
2018-Jun-18 20:00N 49°17' W 122°58'0 0.0
2018-Jun-18 19:28N 49°17' W 122°58'1157.6
2018-Jun-18 19:17N 49°14' W 123°14'1138.1
2018-Jun-18 19:00N 49°17' W 122°58'0 0.2
2018-Jun-18 18:30N 49°18' W 122°58'3 6.3
2018-Jun-18 18:00N 49°18' W 122°54'2 5.0
2018-Jun-18 17:30N 49°18' W 122°57'1 1.4
2018-Jun-18 17:00N 49°17' W 122°58'0 0.0
2018-Jun-18 16:30N 49°17' W 122°58'0 0.0
2018-Jun-18 16:00N 49°17' W 122°58'0 0.0
2018-Jun-18 15:23N 49°17' W 122°58'0 0.0
2018-Jun-18 14:59N 49°17' W 122°58'0 0.0
2018-Jun-18 14:30N 49°17' W 122°58'0 0.0
2018-Jun-18 13:59N 49°17' W 122°58'0 0.0
2018-Jun-18 13:30N 49°17' W 122°58'0 0.0
2018-Jun-18 13:00N 49°17' W 122°58'955.2
2018-Jun-18 12:51N 49°12' W 123°08'924.3
2018-Jun-18 12:30N 49°17' W 122°58'973.6
2018-Jun-18 12:23N 49°12' W 123°08'922.1
2018-Jun-18 12:00N 49°17' W 122°58'0 0.0
2018-Jun-18 11:30N 49°17' W 122°58'0 0.0
2018-Jun-18 10:59N 49°17' W 122°58'0 0.0
2018-Jun-18 10:29N 49°17' W 122°58'0 0.0
2018-Jun-18 10:00N 49°17' W 122°58'0 0.0
2018-Jun-18 09:30N 49°17' W 122°58'0 0.0
2018-Jun-18 09:00N 49°17' W 122°58'0 0.0
2018-Jun-18 08:29N 49°17' W 122°58'0 0.0
2018-Jun-18 08:00N 49°17' W 122°58'0 0.0
2018-Jun-18 07:30N 49°17' W 122°58'0 0.0
2018-Jun-18 06:59N 49°17' W 122°58'0 0.0
2018-Jun-18 06:30N 49°17' W 122°58'0 0.0
2018-Jun-18 06:00N 49°17' W 122°58'0 0.0
2018-Jun-18 05:30N 49°17' W 122°58'0 0.0
2018-Jun-18 05:00N 49°17' W 122°58'0 0.0
2018-Jun-18 04:30N 49°17' W 122°58'751.1
2018-Jun-18 04:21N 49°12' W 123°06'0 0.0
2018-Jun-18 03:59N 49°12' W 123°06'72238.5
2018-Jun-18 03:59N 49°17' W 122°58'715.5
2018-Jun-18 03:30N 49°12' W 123°06'7838.9
2018-Jun-18 03:30N 49°17' W 122°58'715.1
2018-Jun-18 03:00N 49°12' W 123°06'78953.8
2018-Jun-18 03:00N 49°17' W 122°58'714.2
2018-Jun-18 02:29N 49°12' W 123°06'7202.0
2018-Jun-18 02:26N 49°17' W 122°58'717.1
2018-Jun-18 02:00N 49°12' W 123°06'72066.3
2018-Jun-18 02:00N 49°17' W 122°58'0 0.0
2018-Jun-18 01:30N 49°17' W 122°58'7400.9
2018-Jun-18 01:29N 49°12' W 123°06'715.3
2018-Jun-18 01:00N 49°17' W 122°58'74474.3
2018-Jun-18 01:00N 49°12' W 123°06'715.1
2018-Jun-18 00:30N 49°17' W 122°58'7958.8
2018-Jun-18 00:30N 49°12' W 123°06'0 0.0
2018-Jun-18 00:01N 49°12' W 123°06'76723.4
2018-Jun-18 00:00N 49°17' W 122°58'0 0.0
2018-Jun-17 23:30N 49°17' W 122°58'0 0.3
2018-Jun-17 22:58N 49°18' W 122°58'3 6.2
2018-Jun-17 22:30N 49°17' W 122°54'1581.2
2018-Jun-17 22:19N 49°15' W 123°16'1237.3
2018-Jun-17 22:00N 49°17' W 122°58'14871.6
2018-Jun-17 21:59N 49°16' W 123°19'5 0.8
2018-Jun-17 16:27N 49°19' W 123°25'3 6.2
2018-Jun-17 15:58N 49°17' W 123°21'3 5.9
2018-Jun-17 15:29N 49°16' W 123°17'3 5.0
2018-Jun-17 14:53N 49°14' W 123°14'4 3.2
2018-Jun-17 13:46N 49°12' W 123°09'2 6.9
2018-Jun-17 13:30N 49°12' W 123°06'0 0.0
2018-Jun-17 13:00N 49°12' W 123°06'0 0.0
2018-Jun-17 12:30N 49°12' W 123°06'0 0.0
2018-Jun-17 12:00N 49°12' W 123°06'0 0.0
2018-Jun-17 11:30N 49°12' W 123°06'0 0.0
2018-Jun-17 10:59N 49°12' W 123°06'0 0.0
2018-Jun-17 10:29N 49°12' W 123°06'0 0.0
2018-Jun-17 09:57N 49°12' W 123°06'0 0.0
2018-Jun-17 09:30N 49°12' W 123°06'0 0.0
2018-Jun-17 09:00N 49°12' W 123°06'0 0.0
2018-Jun-17 08:30N 49°12' W 123°06'0 0.0
2018-Jun-17 08:00N 49°12' W 123°06'0 0.0
2018-Jun-17 07:30N 49°12' W 123°06'0 0.0
2018-Jun-17 07:00N 49°12' W 123°06'0 0.0
2018-Jun-17 06:30N 49°12' W 123°06'0 0.0
2018-Jun-17 05:58N 49°12' W 123°06'0 0.0
2018-Jun-17 05:28N 49°12' W 123°06'0 0.0
2018-Jun-17 05:00N 49°12' W 123°06'2 4.3
2018-Jun-17 04:30N 49°12' W 123°09'5 8.3
2018-Jun-17 03:52N 49°15' W 123°16'3 7.4
2018-Jun-17 03:30N 49°16' W 123°20'14 3.3
2018-Jun-16 23:13N 49°17' W 122°58'0 0.0
2018-Jun-16 23:00N 49°17' W 122°58'2383.7
2018-Jun-16 22:44N 49°29' W 123°28'2396.3
2018-Jun-16 22:30N 49°17' W 122°58'2294.8
2018-Jun-16 22:16N 49°28' W 123°28'2283.5
2018-Jun-16 22:00N 49°17' W 122°58'0 0.0
2018-Jun-16 21:30N 49°17' W 122°58'0 0.0
2018-Jun-16 21:00N 49°17' W 122°58'0 0.0
2018-Jun-16 20:29N 49°17' W 122°58'0 0.0
2018-Jun-16 19:59N 49°17' W 122°58'0 0.1
2018-Jun-16 19:30N 49°17' W 122°58'1633.4
2018-Jun-16 19:01N 49°18' W 123°23'131130.7
2018-Jun-16 19:00N 49°18' W 123°04'13167.6
2018-Jun-16 18:56N 49°18' W 123°23'2 4.9
2018-Jun-16 18:30N 49°17' W 123°20'81527.2
2018-Jun-16 18:30N 49°18' W 123°07'0 0.0
2018-Jun-16 18:00N 49°18' W 123°07'72443.5
2018-Jun-16 18:00N 49°16' W 123°17'713.6
2018-Jun-16 17:30N 49°18' W 123°07'0 0.0
2018-Jun-16 17:00N 49°18' W 123°07'611.8
2018-Jun-16 16:31N 49°12' W 123°09'6443.0
2018-Jun-16 16:30N 49°18' W 123°05'6207.2
2018-Jun-16 16:28N 49°12' W 123°08'4 7.6
2018-Jun-16 16:01N 49°12' W 123°03'611.5
2018-Jun-16 15:31N 49°18' W 123°00'62120.1
2018-Jun-16 15:30N 49°11' W 122°58'816.6
2018-Jun-16 15:00N 49°17' W 123°06'10862.5
2018-Jun-16 15:00N 49°13' W 122°53'1019.7
2018-Jun-16 14:30N 49°18' W 123°06'103903.4
2018-Jun-16 14:30N 49°11' W 122°55'816.6
2018-Jun-16 14:01N 49°18' W 123°03'9224.7
2018-Jun-16 13:58N 49°09' W 122°59'817.9
2018-Jun-16 13:30N 49°18' W 123°01'101109.6
2018-Jun-16 13:30N 49°08' W 123°03'1019.8
2018-Jun-16 13:01N 49°17' W 122°58'101108.5
2018-Jun-16 13:00N 49°08' W 123°03'0 0.3
2018-Jun-16 12:30N 49°08' W 123°03'1 2.4
2018-Jun-16 12:00N 49°07' W 123°05'2 4.0
2018-Jun-16 11:29N 49°06' W 123°08'2 3.6
2018-Jun-16 10:56N 49°07' W 123°11'2 3.8
2018-Jun-16 10:30N 49°08' W 123°13'2 3.4
2018-Jun-16 10:00N 49°07' W 123°16'4 2.1
2018-Jun-16 08:09N 49°07' W 123°21'1 3.2
2018-Jun-16 07:59N 49°07' W 123°22'6 3.7
2018-Jun-16 06:19N 49°12' W 123°28'2 3.8
2018-Jun-16 05:54N 49°13' W 123°30'2 4.5
2018-Jun-16 05:29N 49°14' W 123°32'22 5.1
2018-Jun-16 01:11N 49°17' W 122°58'0 0.0
2018-Jun-16 01:00N 49°17' W 122°58'0 0.0
2018-Jun-16 00:30N 49°17' W 122°58'0 0.0
2018-Jun-16 00:00N 49°17' W 122°58'0 0.0
2018-Jun-15 23:30N 49°17' W 122°58'0 0.0
2018-Jun-15 23:00N 49°17' W 122°58'0 0.0
2018-Jun-15 22:30N 49°17' W 122°58'0 0.7
2018-Jun-15 21:58N 49°17' W 122°58'0 0.7
2018-Jun-15 21:30N 49°18' W 122°58'2 4.8
2018-Jun-15 21:00N 49°17' W 122°54'1 1.8
2018-Jun-15 20:31N 49°18' W 122°55'4 8.1
2018-Jun-15 20:00N 49°18' W 123°02'3 6.4
2018-Jun-15 19:31N 49°17' W 123°06'4 8.8
2018-Jun-15 19:00N 49°18' W 122°60'1 1.8
2018-Jun-15 18:30N 49°17' W 122°58'0 0.0
2018-Jun-15 18:00N 49°17' W 122°58'0 0.0
2018-Jun-15 17:30N 49°17' W 122°58'3 5.9
2018-Jun-15 17:00N 49°17' W 122°54'2 4.4
2018-Jun-15 16:30N 49°18' W 122°57'1 1.7
2018-Jun-15 16:00N 49°17' W 122°58'1 2.0
2018-Jun-15 15:30N 49°18' W 122°60'4 7.8
2018-Jun-15 15:00N 49°17' W 123°06'1 1.0
2018-Jun-15 14:30N 49°17' W 123°07'3 5.2
2018-Jun-15 14:00N 49°18' W 123°03'2 4.9
2018-Jun-15 13:30N 49°18' W 122°59'0 0.8
2018-Jun-15 13:00N 49°17' W 122°58'3010.1
2018-Jun-15 10:01N 48°59' W 123°35'0 8.1
2018-Jun-15 09:59N 48°59' W 123°35'8 8.2
2018-Jun-15 08:59N 48°53' W 123°27'4 7.8
2018-Jun-15 08:30N 48°49' W 123°25'4 7.6
2018-Jun-15 08:00N 48°47' W 123°21'4 7.5
2018-Jun-15 07:31N 48°43' W 123°21'4 7.1
2018-Jun-15 06:58N 48°39' W 123°21'3 6.6
2018-Jun-15 06:28N 48°36' W 123°20'3 6.6
2018-Jun-15 06:01N 48°33' W 123°18'4 7.0
2018-Jun-15 05:30N 48°30' W 123°16'  
Track history (hours):
 
Tides and Currents Weather Stations Pressure Air Temp Water Temp Dewpoint Dewpoint Depression Visibility Wind Speed Wind Dir Waves Ship Positions

Storm Wave

Last reported at 2018-Jun-25 05:30 UTC. Time now 2018-Jun-25 05:52 UTC.
Position N 49°17' W 122°58'.

Length 19 m; draft 4.3 m.

Type: Tug. MMSI: 316001222.

Date/timePositionNaut miles runAvg speedWind from/ knotsBaromVisibWave heightAir tempDewpointWater temp
2018-Jun-25 05:30N 49°17' W 122°58'73839.9
2018-Jun-25 05:30N 49°12' W 123°06'715.0
2018-Jun-25 05:00N 49°17' W 122°58'71581.1
2018-Jun-25 05:00N 49°12' W 123°06'815.7
2018-Jun-25 04:30N 49°18' W 122°58'8584.8
2018-Jun-25 04:29N 49°12' W 123°06'1121.9
2018-Jun-25 04:00N 49°18' W 122°53'1186.4
2018-Jun-25 03:53N 49°12' W 123°06'1026.1
2018-Jun-25 03:30N 49°18' W 122°54'101977.9
2018-Jun-25 03:30N 49°12' W 123°06'0 0.0
2018-Jun-25 03:00N 49°12' W 123°06'7517.2
2018-Jun-25 03:00N 49°17' W 122°58'715.4
2018-Jun-25 02:30N 49°12' W 123°06'7896.0
2018-Jun-25 02:30N 49°17' W 122°58'715.0
2018-Jun-25 02:00N 49°12' W 123°06'71120.0
2018-Jun-25 02:00N 49°17' W 122°58'715.3
2018-Jun-25 01:30N 49°12' W 123°06'726879.5
2018-Jun-25 01:30N 49°17' W 122°58'0 0.8
2018-Jun-25 01:00N 49°17' W 122°58'0 0.6
2018-Jun-25 00:30N 49°18' W 122°58'841.9
2018-Jun-25 00:19N 49°12' W 123°06'723.3
2018-Jun-25 00:00N 49°17' W 122°58'7122.7
2018-Jun-24 23:56N 49°12' W 123°06'717.2
2018-Jun-24 23:30N 49°17' W 122°58'71414.7
2018-Jun-24 23:30N 49°12' W 123°06'0 0.0
2018-Jun-24 23:00N 49°12' W 123°06'7640.0
2018-Jun-24 23:00N 49°17' W 122°58'0 0.0
2018-Jun-24 22:30N 49°17' W 122°58'0 0.0
2018-Jun-24 22:00N 49°17' W 122°58'0 0.0
2018-Jun-24 21:30N 49°17' W 122°58'0 0.0
2018-Jun-24 21:00N 49°17' W 122°58'719.1
2018-Jun-24 20:37N 49°12' W 123°06'873.1
2018-Jun-24 20:30N 49°18' W 122°58'8421.2
2018-Jun-24 20:29N 49°12' W 123°06'918.6
2018-Jun-24 20:00N 49°18' W 122°56'9111.2
2018-Jun-24 19:55N 49°12' W 123°06'921.8
2018-Jun-24 19:30N 49°17' W 122°55'968.4
2018-Jun-24 19:22N 49°12' W 123°06'820.9
2018-Jun-24 19:00N 49°17' W 122°58'8143.7
2018-Jun-24 18:57N 49°12' W 123°06'716.4
2018-Jun-24 18:30N 49°17' W 122°58'786.5
2018-Jun-24 18:25N 49°12' W 123°06'717.9
2018-Jun-24 18:00N 49°17' W 122°58'750.6
2018-Jun-24 17:51N 49°12' W 123°06'0 0.0
2018-Jun-24 17:30N 49°12' W 123°06'72431.9
2018-Jun-24 17:30N 49°17' W 122°58'715.2
2018-Jun-24 17:00N 49°12' W 123°06'7431.2
2018-Jun-24 16:59N 49°17' W 122°58'0 0.1
2018-Jun-24 16:30N 49°17' W 122°58'7956.6
2018-Jun-24 16:30N 49°12' W 123°06'0 0.0
2018-Jun-24 16:00N 49°12' W 123°06'91537.5
2018-Jun-24 16:00N 49°17' W 122°54'0 0.2
2018-Jun-24 15:30N 49°17' W 122°54'91787.6
2018-Jun-24 15:30N 49°12' W 123°06'918.4
2018-Jun-24 15:00N 49°18' W 122°55'94049.1
2018-Jun-24 15:00N 49°12' W 123°06'918.0
2018-Jun-24 14:30N 49°18' W 122°56'91905.1
2018-Jun-24 14:30N 49°12' W 123°06'816.6
2018-Jun-24 14:00N 49°18' W 122°57'8815.2
2018-Jun-24 14:00N 49°12' W 123°06'715.0
2018-Jun-24 13:30N 49°17' W 122°58'73353.9
2018-Jun-24 13:30N 49°12' W 123°06'715.2
2018-Jun-24 13:00N 49°17' W 122°58'7343.4
2018-Jun-24 12:59N 49°12' W 123°06'0 0.0
2018-Jun-24 12:30N 49°12' W 123°06'72060.2
2018-Jun-24 12:30N 49°17' W 122°58'0 0.0
2018-Jun-24 12:00N 49°17' W 122°58'7956.5
2018-Jun-24 11:59N 49°12' W 123°06'715.3
2018-Jun-24 11:30N 49°17' W 122°58'7558.3
2018-Jun-24 11:29N 49°12' W 123°06'715.3
2018-Jun-24 11:00N 49°17' W 122°58'0 0.0
2018-Jun-24 10:29N 49°17' W 122°58'0 0.0
2018-Jun-24 09:59N 49°17' W 122°58'0 0.0
2018-Jun-24 09:30N 49°17' W 122°58'0 0.0
2018-Jun-24 09:00N 49°17' W 122°58'0 0.0
2018-Jun-24 08:30N 49°17' W 122°58'0 0.0
2018-Jun-24 08:00N 49°17' W 122°58'737.7
2018-Jun-24 07:48N 49°12' W 123°06'724.8
2018-Jun-24 07:30N 49°17' W 122°58'761.0
2018-Jun-24 07:23N 49°12' W 123°06'719.5
2018-Jun-24 07:00N 49°17' W 122°58'73345.9
2018-Jun-24 07:00N 49°12' W 123°06'714.8
2018-Jun-24 06:30N 49°17' W 122°58'0 0.0
2018-Jun-24 06:00N 49°17' W 122°58'713.6
2018-Jun-24 05:27N 49°12' W 123°06'72678.3
2018-Jun-24 05:27N 49°17' W 122°58'0 0.0
2018-Jun-24 05:00N 49°17' W 122°58'71487.1
2018-Jun-24 05:00N 49°12' W 123°06'0 0.0
2018-Jun-24 04:30N 49°12' W 123°06'72679.9
2018-Jun-24 04:30N 49°17' W 122°58'715.1
2018-Jun-24 04:00N 49°12' W 123°06'7836.5
2018-Jun-24 04:00N 49°17' W 122°58'0 0.0
2018-Jun-24 03:30N 49°17' W 122°58'7453.9
2018-Jun-24 03:29N 49°12' W 123°06'0 0.0
2018-Jun-24 03:00N 49°12' W 123°06'7290.9
2018-Jun-24 02:59N 49°17' W 122°58'0 0.0
2018-Jun-24 02:30N 49°17' W 122°58'73826.1
2018-Jun-24 02:30N 49°12' W 123°06'0 0.0
2018-Jun-24 02:00N 49°12' W 123°06'71338.3
2018-Jun-24 02:00N 49°17' W 122°58'715.0
2018-Jun-24 01:30N 49°12' W 123°06'78927.7
2018-Jun-24 01:30N 49°17' W 122°58'0 0.0
2018-Jun-24 00:59N 49°17' W 122°58'7300.9
2018-Jun-24 00:58N 49°12' W 123°06'716.0
2018-Jun-24 00:30N 49°17' W 122°58'7300.9
2018-Jun-24 00:28N 49°12' W 123°06'715.8
2018-Jun-24 00:00N 49°17' W 122°58'72678.3
2018-Jun-24 00:00N 49°12' W 123°06'715.0
2018-Jun-23 23:30N 49°17' W 122°58'7704.8
2018-Jun-23 23:30N 49°12' W 123°06'0 0.0
2018-Jun-23 23:00N 49°12' W 123°06'7201.4
2018-Jun-23 22:58N 49°17' W 122°58'716.3
2018-Jun-23 22:30N 49°12' W 123°06'799.3
2018-Jun-23 22:26N 49°17' W 122°58'0 0.0
2018-Jun-23 22:00N 49°17' W 122°58'71409.6
2018-Jun-23 22:00N 49°12' W 123°06'0 0.0
2018-Jun-23 21:30N 49°12' W 123°06'71273.9
2018-Jun-23 21:30N 49°17' W 122°58'0 0.0
2018-Jun-23 21:00N 49°17' W 122°58'73823.9
2018-Jun-23 21:00N 49°12' W 123°06'715.0
2018-Jun-23 20:30N 49°17' W 122°58'71487.1
2018-Jun-23 20:30N 49°12' W 123°06'0 0.0
2018-Jun-23 19:58N 49°12' W 123°06'72060.2
2018-Jun-23 19:58N 49°17' W 122°58'0 0.0
2018-Jun-23 19:30N 49°17' W 122°58'772.6
2018-Jun-23 19:24N 49°12' W 123°06'719.0
2018-Jun-23 19:00N 49°17' W 122°58'737.8
2018-Jun-23 18:48N 49°12' W 123°06'724.3
2018-Jun-23 18:30N 49°17' W 122°58'7194.0
2018-Jun-23 18:28N 49°12' W 123°06'716.2
2018-Jun-23 18:00N 49°17' W 122°58'7159.4
2018-Jun-23 17:57N 49°12' W 123°06'716.0
2018-Jun-23 17:30N 49°17' W 122°58'732.4
2018-Jun-23 17:16N 49°12' W 123°06'728.7
2018-Jun-23 17:00N 49°17' W 122°58'7182.2
2018-Jun-23 16:58N 49°12' W 123°06'716.2
2018-Jun-23 16:30N 49°17' W 122°58'787.2
2018-Jun-23 16:25N 49°12' W 123°06'717.7
2018-Jun-23 16:00N 49°17' W 122°58'7209.2
2018-Jun-23 15:58N 49°12' W 123°06'0 0.0
2018-Jun-23 15:30N 49°12' W 123°06'7425.1
2018-Jun-23 15:29N 49°17' W 122°58'0 0.0
2018-Jun-23 15:00N 49°17' W 122°58'7925.8
2018-Jun-23 14:59N 49°12' W 123°06'0 0.0
2018-Jun-23 14:30N 49°12' W 123°06'71820.9
2018-Jun-23 14:30N 49°18' W 123°01'3 5.3
2018-Jun-23 14:00N 49°18' W 123°05'6779.9
2018-Jun-23 14:00N 49°12' W 123°06'715.0
2018-Jun-23 13:30N 49°19' W 123°09'7301.3
2018-Jun-23 13:29N 49°12' W 123°06'0 0.0
2018-Jun-23 13:00N 49°12' W 123°06'8460.3
2018-Jun-23 12:59N 49°19' W 123°13'1 2.4
2018-Jun-23 12:30N 49°18' W 123°14'8442.3
2018-Jun-23 12:28N 49°12' W 123°06'0 0.0
2018-Jun-23 12:00N 49°12' W 123°06'10292.4
2018-Jun-23 11:58N 49°18' W 123°18'1 3.2
2018-Jun-23 11:30N 49°18' W 123°20'111047.0
2018-Jun-23 11:30N 49°12' W 123°06'0 0.0
2018-Jun-23 10:58N 49°12' W 123°06'0 0.0
2018-Jun-23 10:30N 49°12' W 123°06'0 0.0
2018-Jun-23 07:22N 49°12' W 123°06'0 0.0
2018-Jun-23 05:36N 49°12' W 123°06'0 0.0
2018-Jun-23 05:30N 49°12' W 123°06'0 0.0
2018-Jun-23 04:58N 49°12' W 123°06'0 0.0
2018-Jun-23 04:30N 49°12' W 123°06'0 0.0
2018-Jun-23 04:00N 49°12' W 123°06'0 0.0
2018-Jun-23 03:29N 49°12' W 123°06'0 0.0
2018-Jun-23 03:00N 49°12' W 123°06'0 0.0
2018-Jun-23 02:30N 49°12' W 123°06'0 0.0
2018-Jun-23 02:00N 49°12' W 123°06'0 0.0
2018-Jun-23 01:30N 49°12' W 123°06'0 0.0
2018-Jun-23 00:58N 49°12' W 123°06'0 0.0
2018-Jun-23 00:30N 49°12' W 123°06'0 0.0
2018-Jun-23 00:00N 49°12' W 123°06'0 0.0
2018-Jun-22 23:29N 49°12' W 123°06'0 0.0
2018-Jun-22 22:59N 49°12' W 123°06'0 0.0
2018-Jun-22 22:28N 49°12' W 123°06'0 0.0
2018-Jun-22 21:58N 49°12' W 123°06'0 0.0
2018-Jun-22 21:30N 49°12' W 123°06'0 0.0
2018-Jun-22 21:00N 49°12' W 123°06'0 0.0
2018-Jun-22 20:28N 49°12' W 123°06'11 1.1
2018-Jun-22 10:21N 49°19' W 123°18'2 3.8
2018-Jun-22 09:56N 49°19' W 123°16'2 3.5
2018-Jun-22 09:30N 49°19' W 123°14'2 3.7
2018-Jun-22 09:00N 49°19' W 123°11'3 6.0
2018-Jun-22 08:30N 49°18' W 123°07'3 5.8
2018-Jun-22 08:00N 49°18' W 123°02'2 4.5
2018-Jun-22 07:30N 49°18' W 122°59'1 1.3
2018-Jun-22 07:00N 49°18' W 122°58'0 0.9
2018-Jun-22 06:30N 49°17' W 122°58'0 0.0
2018-Jun-22 06:00N 49°17' W 122°58'0 0.0
2018-Jun-22 05:28N 49°17' W 122°58'0 0.0
2018-Jun-22 05:00N 49°17' W 122°58'0 0.0
2018-Jun-22 04:30N 49°17' W 122°58'0 0.0
2018-Jun-22 04:00N 49°17' W 122°58'0 0.0
2018-Jun-22 03:30N 49°17' W 122°58'0 0.0
2018-Jun-22 03:00N 49°17' W 122°58'0 0.0
2018-Jun-22 02:30N 49°17' W 122°58'0 0.0
2018-Jun-22 02:00N 49°17' W 122°58'0 0.0
2018-Jun-22 01:30N 49°17' W 122°58'0 0.0
2018-Jun-22 01:00N 49°17' W 122°58'0 0.0
2018-Jun-22 00:30N 49°17' W 122°58'0 0.0
2018-Jun-22 00:00N 49°17' W 122°58'730.9
2018-Jun-21 23:45N 49°12' W 123°06'0 0.0
2018-Jun-21 23:30N 49°12' W 123°06'7896.5
2018-Jun-21 23:30N 49°17' W 122°58'2 3.1
2018-Jun-21 23:00N 49°18' W 122°56'2 3.1
2018-Jun-21 22:30N 49°17' W 122°54'103880.1
2018-Jun-21 22:30N 49°12' W 123°06'917.3
2018-Jun-21 22:00N 49°18' W 122°56'91483.1
2018-Jun-21 22:00N 49°12' W 123°06'715.3
2018-Jun-21 21:30N 49°17' W 122°58'7227.8
2018-Jun-21 21:28N 49°12' W 123°06'715.9
2018-Jun-21 21:00N 49°17' W 122°58'7926.3
2018-Jun-21 21:00N 49°12' W 123°06'0 0.0
2018-Jun-21 20:30N 49°12' W 123°06'7863.5
2018-Jun-21 20:30N 49°17' W 122°58'0 0.1
2018-Jun-21 20:00N 49°17' W 122°58'7726.0
2018-Jun-21 20:00N 49°12' W 123°06'715.2
2018-Jun-21 19:30N 49°17' W 122°58'7559.7
2018-Jun-21 19:29N 49°12' W 123°06'0 0.0
2018-Jun-21 19:00N 49°12' W 123°06'71279.2
2018-Jun-21 19:00N 49°17' W 122°58'715.3
2018-Jun-21 18:30N 49°12' W 123°06'7671.6
2018-Jun-21 18:30N 49°17' W 122°58'0 0.0
2018-Jun-21 18:00N 49°17' W 122°58'0 0.2
2018-Jun-21 17:30N 49°18' W 122°59'1 1.0
2018-Jun-21 17:00N 49°17' W 122°58'0 0.9
2018-Jun-21 16:30N 49°18' W 122°58'0 0.2
2018-Jun-21 16:00N 49°18' W 122°58'1 2.9
2018-Jun-21 15:30N 49°18' W 123°00'1 2.6
2018-Jun-21 15:00N 49°17' W 122°58'3 5.9
2018-Jun-21 14:30N 49°17' W 122°54'2 3.4
2018-Jun-21 14:00N 49°18' W 122°56'1 2.6
2018-Jun-21 13:29N 49°17' W 122°58'0 0.0
2018-Jun-21 13:00N 49°17' W 122°58'0 0.0
2018-Jun-21 12:30N 49°17' W 122°58'0 0.0
2018-Jun-21 12:00N 49°17' W 122°58'0 0.0
2018-Jun-21 11:30N 49°17' W 122°58'0 0.0
2018-Jun-21 10:59N 49°17' W 122°58'0 0.0
2018-Jun-21 10:30N 49°17' W 122°58'718.8
2018-Jun-21 10:06N 49°12' W 123°06'776.1
2018-Jun-21 10:00N 49°17' W 122°58'73357.9
2018-Jun-21 10:00N 49°12' W 123°06'715.0
2018-Jun-21 09:30N 49°17' W 122°58'74477.2
2018-Jun-21 09:30N 49°12' W 123°06'715.0
2018-Jun-21 09:00N 49°17' W 122°58'74479.9
2018-Jun-21 09:00N 49°12' W 123°06'715.0
2018-Jun-21 08:30N 49°17' W 122°58'75369.5
2018-Jun-21 08:30N 49°12' W 123°06'0 0.0
2018-Jun-21 08:00N 49°12' W 123°06'76069.3
2018-Jun-21 08:00N 49°18' W 123°00'713.5
2018-Jun-21 07:30N 49°12' W 123°06'89019.3
2018-Jun-21 07:30N 49°18' W 122°59'713.7
2018-Jun-21 07:00N 49°12' W 123°05'7560.7
2018-Jun-21 07:00N 49°17' W 122°58'0 0.8
2018-Jun-21 06:30N 49°17' W 122°58'73349.7
2018-Jun-21 06:30N 49°11' W 122°59'713.2
2018-Jun-21 06:00N 49°17' W 122°58'6268.9
2018-Jun-21 05:59N 49°12' W 122°56'1 1.7
2018-Jun-21 05:30N 49°12' W 122°55'61674.3
2018-Jun-21 05:30N 49°17' W 122°58'713.4
2018-Jun-21 05:00N 49°13' W 122°51'7751.8
2018-Jun-21 05:00N 49°17' W 122°58'0 0.0
2018-Jun-21 04:30N 49°17' W 122°58'11173.1
2018-Jun-21 04:26N 49°13' W 122°43'1126.0
2018-Jun-21 04:00N 49°17' W 122°58'146968.3
2018-Jun-21 04:00N 49°12' W 122°40'1427.3
2018-Jun-21 03:30N 49°17' W 122°58'14855.6
2018-Jun-21 03:29N 49°12' W 122°40'0 0.0
2018-Jun-21 03:00N 49°12' W 122°40'143751.5
2018-Jun-21 03:00N 49°17' W 122°58'0 0.0
2018-Jun-21 02:30N 49°17' W 122°58'148128.2
2018-Jun-21 02:30N 49°12' W 122°40'0 0.0
2018-Jun-21 02:00N 49°12' W 122°40'13460.0
2018-Jun-21 01:59N 49°17' W 122°58'0 0.8
2018-Jun-21 01:30N 49°18' W 122°58'14224.0
2018-Jun-21 01:27N 49°12' W 122°40'0 0.0
2018-Jun-21 01:00N 49°12' W 122°40'1412196.9
2018-Jun-21 01:00N 49°17' W 122°58'0 0.0
2018-Jun-21 00:30N 49°17' W 122°58'14633.6
2018-Jun-21 00:28N 49°12' W 122°40'0 0.0
2018-Jun-21 00:00N 49°12' W 122°40'142121.2
2018-Jun-21 00:00N 49°17' W 122°58'1426.6
2018-Jun-20 23:29N 49°12' W 122°40'1412194.5
2018-Jun-20 23:29N 49°17' W 122°58'0 0.0
2018-Jun-20 23:00N 49°17' W 122°58'143048.6
2018-Jun-20 23:00N 49°12' W 122°40'1427.7
2018-Jun-20 22:30N 49°17' W 122°58'14633.5
2018-Jun-20 22:29N 49°12' W 122°40'0 0.0
2018-Jun-20 22:00N 49°12' W 122°40'141108.6
2018-Jun-20 21:59N 49°17' W 122°58'1427.7
2018-Jun-20 21:30N 49°12' W 122°40'141478.1
2018-Jun-20 21:29N 49°17' W 122°58'0 0.0
2018-Jun-20 21:00N 49°17' W 122°58'131026.5
2018-Jun-20 20:59N 49°12' W 122°40'1327.5
2018-Jun-20 20:30N 49°17' W 122°58'0 0.0
2018-Jun-20 20:00N 49°17' W 122°58'0 0.0
2018-Jun-20 19:30N 49°17' W 122°58'1344.2
2018-Jun-20 19:12N 49°12' W 122°40'1368.9
2018-Jun-20 19:00N 49°17' W 122°58'0 0.0
2018-Jun-20 18:30N 49°17' W 122°58'0 0.0
2018-Jun-20 18:00N 49°17' W 122°58'143048.6
2018-Jun-20 18:00N 49°12' W 122°40'0 0.0
2018-Jun-20 17:30N 49°12' W 122°40'144064.8
2018-Jun-20 17:30N 49°17' W 122°58'0 0.0
2018-Jun-20 17:00N 49°17' W 122°58'142869.3
2018-Jun-20 17:00N 49°12' W 122°40'1427.3
2018-Jun-20 16:30N 49°17' W 122°58'1490.8
2018-Jun-20 16:21N 49°12' W 122°40'1438.3
2018-Jun-20 16:00N 49°17' W 122°58'14559.3
2018-Jun-20 15:59N 49°12' W 122°40'1428.1
2018-Jun-20 15:30N 49°17' W 122°58'14728.0
2018-Jun-20 15:29N 49°12' W 122°40'0 0.0
2018-Jun-20 15:00N 49°12' W 122°40'143752.2
2018-Jun-20 15:00N 49°17' W 122°58'0 0.0
2018-Jun-20 14:30N 49°17' W 122°58'141742.1
2018-Jun-20 14:29N 49°12' W 122°40'1428.3
2018-Jun-20 14:00N 49°18' W 122°59'14519.3
2018-Jun-20 13:59N 49°12' W 122°40'0 0.0
2018-Jun-20 13:30N 49°12' W 122°40'161830.9
2018-Jun-20 13:30N 49°18' W 123°03'3 6.8
2018-Jun-20 13:00N 49°19' W 123°08'202072.3
2018-Jun-20 13:00N 49°12' W 122°40'0 0.0
2018-Jun-20 12:30N 49°12' W 122°40'222335.3
2018-Jun-20 12:30N 49°19' W 123°12'2244.4
2018-Jun-20 12:00N 49°12' W 122°40'232582.5
2018-Jun-20 12:00N 49°19' W 123°13'1 2.5
2018-Jun-20 11:30N 49°18' W 123°15'241292.0
2018-Jun-20 11:29N 49°12' W 122°40'2552.1
2018-Jun-20 11:00N 49°18' W 123°17'255344.5
2018-Jun-20 11:00N 49°12' W 122°40'0 0.0
2018-Jun-20 10:29N 49°12' W 122°40'27546.9
2018-Jun-20 10:26N 49°18' W 123°19'2756.8
2018-Jun-20 09:58N 49°12' W 122°40'0 0.0
2018-Jun-20 09:30N 49°12' W 122°40'0 0.0
2018-Jun-20 09:00N 49°12' W 122°40'0 0.0
2018-Jun-20 08:30N 49°12' W 122°40'0 0.0
2018-Jun-20 08:00N 49°12' W 122°40'1 1.3
2018-Jun-20 07:29N 49°12' W 122°41'2 3.1
2018-Jun-20 07:00N 49°13' W 122°43'2 3.6
2018-Jun-20 06:29N 49°13' W 122°46'2 4.0
2018-Jun-20 06:00N 49°13' W 122°48'2 4.5
2018-Jun-20 05:30N 49°13' W 122°52'2 3.7
2018-Jun-20 04:59N 49°12' W 122°54'2 5.0
2018-Jun-20 04:30N 49°10' W 122°56'3 5.1
2018-Jun-20 04:00N 49°09' W 122°60'3 5.3
2018-Jun-20 03:30N 49°08' W 123°03'2 4.2
2018-Jun-20 03:00N 49°07' W 123°06'2 4.1
2018-Jun-20 02:30N 49°07' W 123°09'2 3.9
2018-Jun-20 01:56N 49°08' W 123°12'13 0.8
2018-Jun-19 10:33N 49°18' W 123°23'1 9.0
2018-Jun-19 10:25N 49°18' W 123°21'215.0
2018-Jun-19 10:19N 49°19' W 123°19'1 4.0
2018-Jun-19 10:00N 49°19' W 123°17'3143.1
2018-Jun-19 09:59N 49°15' W 123°17'4 8.5
2018-Jun-19 09:29N 49°19' W 123°14'599.5
2018-Jun-19 09:26N 49°14' W 123°14'613.3
2018-Jun-19 09:00N 49°19' W 123°11'6318.1
2018-Jun-19 08:59N 49°14' W 123°14'713.5
2018-Jun-19 08:30N 49°18' W 123°06'6842.2
2018-Jun-19 08:30N 49°12' W 123°08'713.8
2018-Jun-19 08:00N 49°18' W 123°02'7324.3
2018-Jun-19 07:59N 49°12' W 123°08'817.0
2018-Jun-19 07:30N 49°17' W 122°58'9360.5
2018-Jun-19 07:28N 49°12' W 123°09'918.5
2018-Jun-19 07:00N 49°17' W 122°58'9345.7
2018-Jun-19 06:59N 49°13' W 123°11'2 4.4
2018-Jun-19 06:30N 49°14' W 123°13'119481.3
2018-Jun-19 06:30N 49°17' W 122°58'0 0.0
2018-Jun-19 06:00N 49°17' W 122°58'0 0.0
2018-Jun-19 05:30N 49°17' W 122°58'0 0.0
2018-Jun-19 04:59N 49°17' W 122°58'0 0.0
2018-Jun-19 04:30N 49°17' W 122°58'0 0.0
2018-Jun-19 04:00N 49°17' W 122°58'0 0.0
2018-Jun-19 03:29N 49°17' W 122°58'0 0.0
2018-Jun-19 03:00N 49°17' W 122°58'0 0.3
2018-Jun-19 02:30N 49°18' W 122°59'3 5.2
2018-Jun-19 01:58N 49°18' W 122°54'3 3.6
2018-Jun-19 01:15N 49°17' W 122°58'0 0.0
2018-Jun-19 00:11N 49°17' W 122°58'2 1.6
2018-Jun-18 23:13N 49°18' W 123°01'1 3.2
2018-Jun-18 22:57N 49°18' W 122°59'1 1.6
2018-Jun-18 22:29N 49°17' W 122°58'0 0.0
2018-Jun-18 21:49N 49°17' W 122°58'0 0.0
2018-Jun-18 21:29N 49°17' W 122°58'0 0.0
2018-Jun-18 20:49N 49°17' W 122°58'0 0.0
2018-Jun-18 20:28N 49°17' W 122°58'0 0.0
2018-Jun-18 20:00N 49°17' W 122°58'0 0.0
2018-Jun-18 19:28N 49°17' W 122°58'1157.6
2018-Jun-18 19:17N 49°14' W 123°14'1138.1
2018-Jun-18 19:00N 49°17' W 122°58'0 0.2
2018-Jun-18 18:30N 49°18' W 122°58'3 6.3
2018-Jun-18 18:00N 49°18' W 122°54'2 5.0
2018-Jun-18 17:30N 49°18' W 122°57'1 1.4
2018-Jun-18 17:00N 49°17' W 122°58'0 0.0
2018-Jun-18 16:30N 49°17' W 122°58'0 0.0
2018-Jun-18 16:00N 49°17' W 122°58'0 0.0
2018-Jun-18 15:23N 49°17' W 122°58'0 0.0
2018-Jun-18 14:59N 49°17' W 122°58'0 0.0
2018-Jun-18 14:30N 49°17' W 122°58'0 0.0
2018-Jun-18 13:59N 49°17' W 122°58'0 0.0
2018-Jun-18 13:30N 49°17' W 122°58'0 0.0
2018-Jun-18 13:00N 49°17' W 122°58'955.2
2018-Jun-18 12:51N 49°12' W 123°08'924.3
2018-Jun-18 12:30N 49°17' W 122°58'973.6
2018-Jun-18 12:23N 49°12' W 123°08'922.1
2018-Jun-18 12:00N 49°17' W 122°58'0 0.0
2018-Jun-18 11:30N 49°17' W 122°58'0 0.0
2018-Jun-18 10:59N 49°17' W 122°58'0 0.0
2018-Jun-18 10:29N 49°17' W 122°58'0 0.0
2018-Jun-18 10:00N 49°17' W 122°58'0 0.0
2018-Jun-18 09:30N 49°17' W 122°58'0 0.0
2018-Jun-18 09:00N 49°17' W 122°58'0 0.0
2018-Jun-18 08:29N 49°17' W 122°58'0 0.0
2018-Jun-18 08:00N 49°17' W 122°58'0 0.0
2018-Jun-18 07:30N 49°17' W 122°58'0 0.0
2018-Jun-18 06:59N 49°17' W 122°58'0 0.0
2018-Jun-18 06:30N 49°17' W 122°58'0 0.0
2018-Jun-18 06:00N 49°17' W 122°58'0 0.0
2018-Jun-18 05:30N 49°17' W 122°58'0 0.0
2018-Jun-18 05:00N 49°17' W 122°58'0 0.0
2018-Jun-18 04:30N 49°17' W 122°58'751.1
2018-Jun-18 04:21N 49°12' W 123°06'0 0.0
2018-Jun-18 03:59N 49°12' W 123°06'72238.5
2018-Jun-18 03:59N 49°17' W 122°58'715.5
2018-Jun-18 03:30N 49°12' W 123°06'7838.9
2018-Jun-18 03:30N 49°17' W 122°58'715.1
2018-Jun-18 03:00N 49°12' W 123°06'78953.8
2018-Jun-18 03:00N 49°17' W 122°58'714.2
2018-Jun-18 02:29N 49°12' W 123°06'7202.0
2018-Jun-18 02:26N 49°17' W 122°58'717.1
2018-Jun-18 02:00N 49°12' W 123°06'72066.3
2018-Jun-18 02:00N 49°17' W 122°58'0 0.0
2018-Jun-18 01:30N 49°17' W 122°58'7400.9
2018-Jun-18 01:29N 49°12' W 123°06'715.3
2018-Jun-18 01:00N 49°17' W 122°58'74474.3
2018-Jun-18 01:00N 49°12' W 123°06'715.1
2018-Jun-18 00:30N 49°17' W 122°58'7958.8
2018-Jun-18 00:30N 49°12' W 123°06'0 0.0
2018-Jun-18 00:01N 49°12' W 123°06'76723.4
2018-Jun-18 00:00N 49°17' W 122°58'0 0.0
2018-Jun-17 23:30N 49°17' W 122°58'0 0.3
2018-Jun-17 22:58N 49°18' W 122°58'3 6.2
2018-Jun-17 22:30N 49°17' W 122°54'1581.2
2018-Jun-17 22:19N 49°15' W 123°16'1237.3
2018-Jun-17 22:00N 49°17' W 122°58'14871.6
2018-Jun-17 21:59N 49°16' W 123°19'5 0.8
2018-Jun-17 16:27N 49°19' W 123°25'3 6.2
2018-Jun-17 15:58N 49°17' W 123°21'3 5.9
2018-Jun-17 15:29N 49°16' W 123°17'3 5.0
2018-Jun-17 14:53N 49°14' W 123°14'4 3.2
2018-Jun-17 13:46N 49°12' W 123°09'2 6.9
2018-Jun-17 13:30N 49°12' W 123°06'0 0.0
2018-Jun-17 13:00N 49°12' W 123°06'0 0.0
2018-Jun-17 12:30N 49°12' W 123°06'0 0.0
2018-Jun-17 12:00N 49°12' W 123°06'0 0.0
2018-Jun-17 11:30N 49°12' W 123°06'0 0.0
2018-Jun-17 10:59N 49°12' W 123°06'0 0.0
2018-Jun-17 10:29N 49°12' W 123°06'0 0.0
2018-Jun-17 09:57N 49°12' W 123°06'0 0.0
2018-Jun-17 09:30N 49°12' W 123°06'0 0.0
2018-Jun-17 09:00N 49°12' W 123°06'0 0.0
2018-Jun-17 08:30N 49°12' W 123°06'0 0.0
2018-Jun-17 08:00N 49°12' W 123°06'0 0.0
2018-Jun-17 07:30N 49°12' W 123°06'0 0.0
2018-Jun-17 07:00N 49°12' W 123°06'0 0.0
2018-Jun-17 06:30N 49°12' W 123°06'0 0.0
2018-Jun-17 05:58N 49°12' W 123°06'0 0.0
2018-Jun-17 05:28N 49°12' W 123°06'0 0.0
2018-Jun-17 05:00N 49°12' W 123°06'2 4.3
2018-Jun-17 04:30N 49°12' W 123°09'5 8.3
2018-Jun-17 03:52N 49°15' W 123°16'3 7.4
2018-Jun-17 03:30N 49°16' W 123°20'14 3.3
2018-Jun-16 23:13N 49°17' W 122°58'0 0.0
2018-Jun-16 23:00N 49°17' W 122°58'2383.7
2018-Jun-16 22:44N 49°29' W 123°28'2396.3
2018-Jun-16 22:30N 49°17' W 122°58'2294.8
2018-Jun-16 22:16N 49°28' W 123°28'2283.5
2018-Jun-16 22:00N 49°17' W 122°58'0 0.0
2018-Jun-16 21:30N 49°17' W 122°58'0 0.0
2018-Jun-16 21:00N 49°17' W 122°58'0 0.0
2018-Jun-16 20:29N 49°17' W 122°58'0 0.0
2018-Jun-16 19:59N 49°17' W 122°58'0 0.1
2018-Jun-16 19:30N 49°17' W 122°58'1633.4
2018-Jun-16 19:01N 49°18' W 123°23'131130.7
2018-Jun-16 19:00N 49°18' W 123°04'13167.6
2018-Jun-16 18:56N 49°18' W 123°23'2 4.9
2018-Jun-16 18:30N 49°17' W 123°20'81527.2
2018-Jun-16 18:30N 49°18' W 123°07'0 0.0
2018-Jun-16 18:00N 49°18' W 123°07'72443.5
2018-Jun-16 18:00N 49°16' W 123°17'713.6
2018-Jun-16 17:30N 49°18' W 123°07'0 0.0
2018-Jun-16 17:00N 49°18' W 123°07'611.8
2018-Jun-16 16:31N 49°12' W 123°09'6443.0
2018-Jun-16 16:30N 49°18' W 123°05'6207.2
2018-Jun-16 16:28N 49°12' W 123°08'4 7.6
2018-Jun-16 16:01N 49°12' W 123°03'611.5
2018-Jun-16 15:31N 49°18' W 123°00'62120.1
2018-Jun-16 15:30N 49°11' W 122°58'816.6
2018-Jun-16 15:00N 49°17' W 123°06'10862.5
2018-Jun-16 15:00N 49°13' W 122°53'1019.7
2018-Jun-16 14:30N 49°18' W 123°06'103903.4
2018-Jun-16 14:30N 49°11' W 122°55'816.6
2018-Jun-16 14:01N 49°18' W 123°03'9224.7
2018-Jun-16 13:58N 49°09' W 122°59'817.9
2018-Jun-16 13:30N 49°18' W 123°01'101109.6
2018-Jun-16 13:30N 49°08' W 123°03'1019.8
2018-Jun-16 13:01N 49°17' W 122°58'101108.5
2018-Jun-16 13:00N 49°08' W 123°03'0 0.3
2018-Jun-16 12:30N 49°08' W 123°03'1 2.4
2018-Jun-16 12:00N 49°07' W 123°05'2 4.0
2018-Jun-16 11:29N 49°06' W 123°08'2 3.6
2018-Jun-16 10:56N 49°07' W 123°11'2 3.8
2018-Jun-16 10:30N 49°08' W 123°13'2 3.4
2018-Jun-16 10:00N 49°07' W 123°16'4 2.1
2018-Jun-16 08:09N 49°07' W 123°21'1 3.2
2018-Jun-16 07:59N 49°07' W 123°22'6 3.7
2018-Jun-16 06:19N 49°12' W 123°28'2 3.8
2018-Jun-16 05:54N 49°13' W 123°30'2 4.5
2018-Jun-16 05:29N 49°14' W 123°32'22 5.1
2018-Jun-16 01:11N 49°17' W 122°58'0 0.0
2018-Jun-16 01:00N 49°17' W 122°58'0 0.0
2018-Jun-16 00:30N 49°17' W 122°58'0 0.0
2018-Jun-16 00:00N 49°17' W 122°58'0 0.0
2018-Jun-15 23:30N 49°17' W 122°58'0 0.0
2018-Jun-15 23:00N 49°17' W 122°58'0 0.0
2018-Jun-15 22:30N 49°17' W 122°58'0 0.7
2018-Jun-15 21:58N 49°17' W 122°58'0 0.7
2018-Jun-15 21:30N 49°18' W 122°58'2 4.8
2018-Jun-15 21:00N 49°17' W 122°54'1 1.8
2018-Jun-15 20:31N 49°18' W 122°55'4 8.1
2018-Jun-15 20:00N 49°18' W 123°02'3 6.4
2018-Jun-15 19:31N 49°17' W 123°06'4 8.8
2018-Jun-15 19:00N 49°18' W 122°60'1 1.8
2018-Jun-15 18:30N 49°17' W 122°58'0 0.0
2018-Jun-15 18:00N 49°17' W 122°58'0 0.0
2018-Jun-15 17:30N 49°17' W 122°58'3 5.9
2018-Jun-15 17:00N 49°17' W 122°54'2 4.4
2018-Jun-15 16:30N 49°18' W 122°57'1 1.7
2018-Jun-15 16:00N 49°17' W 122°58'1 2.0
2018-Jun-15 15:30N 49°18' W 122°60'4 7.8
2018-Jun-15 15:00N 49°17' W 123°06'1 1.0
2018-Jun-15 14:30N 49°17' W 123°07'3 5.2
2018-Jun-15 14:00N 49°18' W 123°03'2 4.9
2018-Jun-15 13:30N 49°18' W 122°59'0 0.8
2018-Jun-15 13:00N 49°17' W 122°58'3010.1
2018-Jun-15 10:01N 48°59' W 123°35'0 8.1
2018-Jun-15 09:59N 48°59' W 123°35'8 8.2
2018-Jun-15 08:59N 48°53' W 123°27'4 7.8
2018-Jun-15 08:30N 48°49' W 123°25'4 7.6
2018-Jun-15 08:00N 48°47' W 123°21'4 7.5
2018-Jun-15 07:31N 48°43' W 123°21'4 7.1
2018-Jun-15 06:58N 48°39' W 123°21'3 6.6
2018-Jun-15 06:28N 48°36' W 123°20'3 6.6
2018-Jun-15 06:01N 48°33' W 123°18'4 7.0
2018-Jun-15 05:30N 48°30' W 123°16'  

Dump ship's entire track history